Time;durP1;ratioP1;P1;durP2;ratioP2;P2;SDS_P1;SDS_P2;PMS_P1;PMS_P2;Temp;Humidity;BMP_temperature;BMP_pressure;BME280_temperature;BME280_humidity;BME280_pressure;Samples;Min_cycle;Max_cycle;Signal;HPM_P1;HPM_P2
2022/12/21 00:06:53;;;;;;;24.90;13.18;;;;;;;0.45;70.18;100160.78;30746615;28;96815;-69
2022/12/21 00:21:54;;;;;;;22.10;10.63;;;;;;;0.38;70.29;100159.53;30745080;28;97196;-69
2022/12/21 00:36:56;;;;;;;26.35;12.90;;;;;;;0.30;70.45;100150.44;30744570;28;96847;-70
2022/12/21 00:51:56;;;;;;;25.13;11.57;;;;;;;0.20;70.52;100143.31;30742093;28;96595;-69
2022/12/21 01:06:57;;;;;;;20.00;10.60;;;;;;;0.04;70.73;100188.03;30740711;28;97321;-69
2022/12/21 01:21:57;;;;;;;21.77;11.68;;;;;;;0.03;71.16;100157.53;30740033;28;96662;-69
2022/12/21 01:36:58;;;;;;;24.38;11.30;;;;;;;-0.01;71.35;100118.47;30738718;28;96754;-69
2022/12/21 01:52:12;;;;;;;20.25;10.52;;;;;;;0.05;71.62;100096.25;30737453;28;96599;-69
2022/12/21 02:07:13;;;;;;;;;;;;;;;0.19;71.58;100092.66;30735851;28;97378;-69
2022/12/21 02:22:24;;;;;;;19.17;10.07;;;;;;;0.23;71.73;100109.84;30733955;28;98776;-70
2022/12/21 02:37:38;;;;;;;21.85;11.25;;;;;;;-0.03;71.30;100099.41;30733443;28;96516;-69
2022/12/21 02:52:41;;;;;;;24.07;10.37;;;;;;;0.36;71.83;100088.91;30732123;28;96729;-69
2022/12/21 03:08:04;;;;;;;24.25;11.02;;;;;;;0.66;71.60;100075.41;30736470;28;96670;-69
2022/12/21 03:23:21;;;;;;;25.20;11.73;;;;;;;0.63;70.86;100096.59;30742536;28;98632;-69
2022/12/21 03:38:32;;;;;;;22.23;10.73;;;;;;;0.78;71.57;100078.09;30750057;28;96802;-69
2022/12/21 03:53:38;;;;;;;20.00;10.30;;;;;;;1.06;71.54;100049.88;30747579;28;96727;-69
2022/12/21 04:08:39;;;;;;;24.35;10.93;;;;;;;1.12;71.67;100046.78;30745827;28;96955;-69
2022/12/21 04:38:59;;;;;;;21.90;10.23;;;;;;;1.30;71.00;100050.69;30743835;28;96682;-70
2022/12/21 04:54:02;;;;;;;23.00;10.32;;;;;;;1.43;71.55;100020.91;30742344;28;96884;-69
2022/12/21 05:09:02;;;;;;;22.98;11.75;;;;;;;1.46;71.60;100002.28;30668040;28;97251;-67
2022/12/21 05:24:03;;;;;;;20.60;10.43;;;;;;;1.44;72.36;99996.34;30610723;28;96789;-68
2022/12/21 05:39:03;;;;;;;26.30;12.45;;;;;;;1.24;72.56;99998.66;30612973;28;97094;-66
2022/12/21 05:54:04;;;;;;;19.77;10.70;;;;;;;1.46;72.86;100004.91;30609184;28;96938;-67
2022/12/21 06:09:04;;;;;;;19.40;11.80;;;;;;;1.48;73.15;100005.66;30609312;28;96741;-67
2022/12/21 06:24:05;;;;;;;22.10;10.07;;;;;;;1.50;72.88;100008.97;30608303;28;96855;-68
2022/12/21 06:39:05;;;;;;;22.13;10.88;;;;;;;1.69;73.31;100008.41;30607064;28;96849;-67
2022/12/21 06:54:07;;;;;;;21.50;11.50;;;;;;;1.85;72.77;100011.53;30605683;28;97041;-68
2022/12/21 07:09:11;;;;;;;20.48;10.55;;;;;;;1.90;72.50;100034.84;30604483;28;96721;-65
2022/12/21 07:24:11;;;;;;;14.52;8.18;;;;;;;1.90;72.18;100018.22;30604054;28;97385;-63
2022/12/21 07:39:11;;;;;;;9.90;5.57;;;;;;;2.10;72.27;99993.84;30603700;28;96721;-67
2022/12/21 07:54:12;;;;;;;12.57;6.32;;;;;;;2.33;71.20;99999.09;30608523;28;96875;-67
2022/12/21 08:09:12;;;;;;;15.15;7.43;;;;;;;2.48;70.73;100011.03;30621605;28;96875;-64
2022/12/21 08:24:13;;;;;;;14.57;8.68;;;;;;;2.59;70.33;100017.22;30617960;28;96702;-65
2022/12/21 08:39:14;;;;;;;22.10;10.32;;;;;;;2.71;70.58;100022.31;30617250;28;96723;-67
2022/12/21 08:54:14;;;;;;;22.55;10.52;;;;;;;2.84;69.63;100019.56;30617535;28;96700;-65
2022/12/21 09:09:14;;;;;;;24.27;11.68;;;;;;;3.10;69.89;100008.66;30613767;28;96775;-65
2022/12/21 09:24:15;;;;;;;20.02;11.20;;;;;;;3.19;69.06;100005.28;30614090;28;97416;-63
2022/12/21 09:39:15;;;;;;;23.48;10.90;;;;;;;3.42;68.85;99984.09;30613611;28;96778;-63
2022/12/21 09:54:20;;;;;;;26.50;12.70;;;;;;;3.66;69.07;99978.56;30613123;28;97487;-64
2022/12/21 10:09:55;;;;;;;24.75;12.60;;;;;;;3.82;68.52;99964.06;30610645;28;98112;-66
2022/12/21 10:25:00;;;;;;;33.23;15.03;;;;;;;3.67;68.45;99972.31;30608911;28;96662;-66
2022/12/21 10:40:01;;;;;;;25.98;13.70;;;;;;;3.56;68.59;99956.59;30607139;28;97648;-63
2022/12/21 10:55:02;;;;;;;33.95;15.80;;;;;;;3.80;68.53;99947.53;30606897;28;96835;-65
2022/12/21 11:10:21;;;;;;;43.25;20.98;;;;;;;3.88;68.74;99947.72;30605594;28;97363;-66
2022/12/21 11:25:25;;;;;;;39.65;18.35;;;;;;;3.95;68.69;99927.78;30607110;28;96947;-66
2022/12/21 11:40:27;;;;;;;27.10;15.60;;;;;;;3.91;69.40;99934.28;30623987;28;97312;-65
2022/12/21 11:55:31;;;;;;;29.27;16.10;;;;;;;3.67;69.27;99931.97;30623071;28;97560;-66
2022/12/21 12:10:46;;;;;;;29.00;12.20;;;;;;;3.39;70.16;99929.06;30622608;28;97431;-66
2022/12/21 12:26:13;;;;;;;21.70;11.13;;;;;;;3.25;70.24;99924.94;30620688;28;97046;-65
2022/12/21 12:41:32;;;;;;;21.42;11.20;;;;;;;2.95;70.44;99900.25;30616777;28;96858;-63
2022/12/21 12:56:44;;;;;;;26.75;12.27;;;;;;;3.06;70.89;99886.19;30617111;28;97476;-64
2022/12/21 13:11:56;;;;;;;26.95;12.65;;;;;;;2.68;71.29;99888.44;30614583;28;97180;-65
2022/12/21 13:27:00;;;;;;;31.95;16.35;;;;;;;2.97;72.44;99890.44;30613926;28;96949;-66
2022/12/21 13:42:07;;;;;;;26.97;15.00;;;;;;;3.17;72.56;99899.28;30614161;28;96635;-66
2022/12/21 13:57:13;;;;;;;34.42;18.77;;;;;;;3.15;73.04;99903.00;30612952;28;96600;-65
2022/12/21 14:12:19;;;;;;;30.50;16.90;;;;;;;3.00;72.95;99898.06;30608135;28;97121;-67
2022/12/21 14:27:21;;;;;;;29.92;15.10;;;;;;;2.71;74.38;99887.34;30610035;28;96571;-67
2022/12/21 14:42:40;;;;;;;34.92;15.55;;;;;;;2.65;75.29;99896.59;30607247;28;97310;-65
2022/12/21 14:57:44;;;;;;;34.72;16.33;;;;;;;2.65;75.22;99888.69;30607719;28;97008;-66
2022/12/21 15:12:45;;;;;;;31.50;16.13;;;;;;;2.58;76.05;99887.50;30624381;28;96758;-65
2022/12/21 15:27:59;;;;;;;33.67;17.27;;;;;;;2.59;76.14;99867.31;30625344;28;97447;-68
2022/12/21 15:43:32;;;;;;;29.87;16.23;;;;;;;2.54;77.02;99875.56;30619881;28;97482;-67
2022/12/21 15:58:34;;;;;;;38.33;18.58;;;;;;;2.44;77.26;99872.03;30619718;28;96930;-67
2022/12/21 16:13:39;;;;;;;34.45;19.17;;;;;;;2.73;77.44;99856.47;30621417;28;96696;-68
2022/12/21 16:28:40;;;;;;;;;;;;;;;2.73;77.81;99858.28;30623575;28;96594;-67
2022/12/21 16:43:46;;;;;;;38.30;19.58;;;;;;;2.74;77.73;99854.69;30618911;28;98265;-66
2022/12/21 16:58:56;;;;;;;39.15;19.90;;;;;;;2.93;77.70;99848.72;30609972;28;97199;-66
2022/12/21 17:13:57;;;;;;;28.20;17.45;;;;;;;2.93;77.48;99870.59;30604948;28;97138;-67
2022/12/21 17:28:57;;;;;;;27.70;14.70;;;;;;;2.85;77.30;99859.88;30604326;28;96942;-67
2022/12/21 17:43:58;;;;;;;30.58;16.48;;;;;;;2.84;78.48;99859.06;30509777;28;97377;-66
2022/12/21 17:58:58;;;;;;;34.15;18.10;;;;;;;3.03;78.25;99839.94;30564019;28;97026;-67
2022/12/21 18:13:58;;;;;;;33.15;17.60;;;;;;;2.92;78.45;99847.88;30610038;28;96683;-67
2022/12/21 18:29:00;;;;;;;26.08;15.48;;;;;;;2.92;78.38;99847.06;30610467;28;96597;-67
2022/12/21 18:44:01;;;;;;;28.05;16.60;;;;;;;3.11;78.72;99835.81;30587716;28;96596;-67
2022/12/21 18:59:01;;;;;;;31.70;15.50;;;;;;;3.27;78.30;99843.19;30582389;28;96629;-69
2022/12/21 19:14:01;;;;;;;28.65;15.48;;;;;;;3.17;79.01;99824.72;30607244;28;96668;-69
2022/12/21 19:29:13;;;;;;;28.70;15.00;;;;;;;3.13;78.74;99823.34;30598973;28;96775;-72
2022/12/21 19:44:14;;;;;;;20.70;13.13;;;;;;;3.03;78.45;99818.03;30590947;28;96927;-68
2022/12/21 19:59:20;;;;;;;21.73;13.32;;;;;;;2.88;78.98;99849.09;30616119;28;97020;-68
2022/12/21 20:14:48;;;;;;;23.85;12.77;;;;;;;2.97;79.71;99813.28;30625805;28;96707;-68
2022/12/21 20:29:49;;;;;;;23.60;11.48;;;;;;;3.01;78.97;99810.25;30623123;28;97079;-68
2022/12/21 20:44:53;;;;;;;15.88;8.77;;;;;;;3.01;79.52;99797.09;30620344;28;96571;-68
2022/12/21 20:59:53;;;;;;;15.00;8.17;;;;;;;2.94;79.62;99803.88;30620076;28;96675;-68
2022/12/21 21:14:54;;;;;;;13.93;7.43;;;;;;;3.05;79.50;99811.66;30617047;28;96735;-68
2022/12/21 21:29:54;;;;;;;16.13;8.73;;;;;;;3.16;79.76;99808.13;30617668;28;97264;-68
2022/12/21 21:44:54;;;;;;;13.52;8.90;;;;;;;3.52;79.62;99800.63;30617567;28;96615;-67
2022/12/21 21:59:56;;;;;;;18.17;9.85;;;;;;;3.47;78.49;99799.34;30587568;28;97129;-70
2022/12/21 22:15:12;;;;;;;18.65;9.85;;;;;;;2.83;78.55;99804.78;30486055;28;97080;-70
2022/12/21 22:45:36;;;;;;;21.57;8.63;;;;;;;2.74;79.54;99771.34;30485008;28;96738;-68
2022/12/21 23:00:37;;;;;;;17.15;10.25;;;;;;;2.44;79.66;99762.44;30483181;28;96670;-67
2022/12/21 23:15:37;;;;;;;16.23;10.45;;;;;;;2.30;79.99;99760.97;30486340;28;97188;-68
2022/12/21 23:45:57;;;;;;;23.17;11.93;;;;;;;2.46;80.83;99764.94;30509888;28;96650;-67
